Time;durP1;ratioP1;P1;durP2;ratioP2;P2;SDS_P1;SDS_P2;PMS_P1;PMS_P2;Temp;Humidity;BMP_temperature;BMP_pressure;BME280_temperature;BME280_humidity;BME280_pressure;Samples;Min_cycle;Max_cycle;Signal;HPM_P1;HPM_P2
2023/06/18 00:01:29;;;;;;;13.33;11.93;;;17.50;99.90;;;;;;5059103;28;20237;-55
2023/06/18 00:03:57;;;;;;;14.07;12.67;;;17.60;99.90;;;;;;5095500;28;20690;-54
2023/06/18 00:06:25;;;;;;;13.37;12.13;;;17.50;99.90;;;;;;5094660;28;20775;-55
2023/06/18 00:08:53;;;;;;;14.13;12.80;;;17.50;99.90;;;;;;5096125;28;20224;-55
2023/06/18 00:11:22;;;;;;;13.60;12.27;;;17.40;99.90;;;;;;5096112;28;20234;-55
2023/06/18 00:13:50;;;;;;;13.63;12.33;;;17.40;99.90;;;;;;5094344;28;20248;-53
2023/06/18 00:16:19;;;;;;;13.47;11.83;;;17.40;99.90;;;;;;5095779;28;20223;-55
2023/06/18 00:18:47;;;;;;;15.53;13.17;;;17.40;99.90;;;;;;5097921;28;20240;-55
2023/06/18 00:21:15;;;;;;;13.37;11.97;;;17.40;99.90;;;;;;5116184;28;20322;-55
2023/06/18 00:23:43;;;;;;;14.37;12.87;;;17.30;99.90;;;;;;5115132;28;20580;-55
2023/06/18 00:26:11;;;;;;;13.10;11.77;;;17.30;99.90;;;;;;5095577;28;20235;-55
2023/06/18 00:28:45;;;;;;;13.77;12.47;;;17.40;99.90;;;;;;5062525;28;20304;-56
2023/06/18 00:31:14;;;;;;;13.80;12.40;;;17.30;99.90;;;;;;5079909;28;20232;-55
2023/06/18 00:33:43;;;;;;;13.10;11.83;;;17.30;99.90;;;;;;5095121;28;20224;-55
2023/06/18 00:36:12;;;;;;;13.30;12.00;;;17.20;99.90;;;;;;5077404;28;20256;-55
2023/06/18 00:38:45;;;;;;;14.57;13.07;;;17.20;99.90;;;;;;5095411;28;20285;-55
2023/06/18 00:41:13;;;;;;;13.77;12.47;;;17.10;99.90;;;;;;5077525;28;20230;-55
2023/06/18 00:43:41;;;;;;;14.00;12.67;;;17.10;99.90;;;;;;5082774;28;20677;-55
2023/06/18 00:46:09;;;;;;;13.33;12.03;;;17.10;99.90;;;;;;5066602;28;20586;-55
2023/06/18 00:48:37;;;;;;;13.43;12.13;;;17.10;99.90;;;;;;5103710;28;20559;-54
2023/06/18 00:51:07;;;;;;;13.70;12.40;;;17.00;99.90;;;;;;5084988;28;20239;-55
2023/06/18 00:53:35;;;;;;;14.27;12.87;;;17.00;99.90;;;;;;5098883;28;20306;-54
2023/06/18 00:56:03;;;;;;;13.83;12.53;;;16.90;99.90;;;;;;5084761;28;20242;-55
2023/06/18 00:58:31;;;;;;;14.37;12.87;;;16.90;99.90;;;;;;5089477;28;20226;-55
2023/06/18 01:00:59;;;;;;;13.10;11.80;;;16.90;99.90;;;;;;5094513;28;20270;-56
2023/06/18 01:03:28;;;;;;;11.13;10.13;;;16.80;99.90;;;;;;5076535;28;20227;-55
2023/06/18 01:05:59;;;;;;;9.57;8.57;;;16.80;99.90;;;;;;5093543;28;20223;-54
2023/06/18 01:08:32;;;;;;;7.70;6.97;;;16.70;99.90;;;;;;5079944;28;20232;-54
2023/06/18 01:11:03;;;;;;;6.90;6.20;;;16.70;99.90;;;;;;5093264;28;20637;-55
2023/06/18 01:13:32;;;;;;;6.70;6.10;;;16.60;99.90;;;;;;5074020;28;20228;-55
2023/06/18 01:16:03;;;;;;;7.90;7.20;;;16.60;99.90;;;;;;5080950;28;20222;-55
2023/06/18 01:18:35;;;;;;;7.53;6.90;;;16.50;99.90;;;;;;5094240;28;20704;-54
2023/06/18 01:21:06;;;;;;;6.97;6.37;;;16.50;99.90;;;;;;5074360;28;20223;-54
2023/06/18 01:23:49;;;;;;;7.13;6.53;;;16.50;99.90;;;;;;5081931;28;20265;-55
2023/06/18 01:26:20;;;;;;;8.03;7.33;;;16.40;99.90;;;;;;5088179;28;20568;-55
2023/06/18 01:28:51;;;;;;;7.50;6.80;;;16.40;99.90;;;;;;5079532;28;20763;-55
2023/06/18 01:31:21;;;;;;;7.50;6.80;;;16.40;99.90;;;;;;5079590;28;20581;-55
2023/06/18 01:33:53;;;;;;;8.67;7.83;;;16.40;99.90;;;;;;5094336;28;20589;-53
2023/06/18 01:36:30;;;;;;;9.53;8.57;;;16.30;99.90;;;;;;5094146;28;20592;-55
2023/06/18 01:39:07;;;;;;;7.63;6.93;;;16.30;99.90;;;;;;5076240;28;20321;-54
2023/06/18 01:41:39;;;;;;;7.83;7.13;;;16.30;99.90;;;;;;5075981;28;20271;-55
2023/06/18 01:44:12;;;;;;;8.00;7.30;;;16.30;99.90;;;;;;5078864;28;20757;-55
2023/06/18 01:46:42;;;;;;;9.00;8.20;;;16.20;99.90;;;;;;5087844;28;20225;-55
2023/06/18 01:49:11;;;;;;;10.83;9.83;;;16.20;99.90;;;;;;5098554;28;20309;-55
2023/06/18 01:51:40;;;;;;;9.17;8.37;;;16.10;99.90;;;;;;5114372;28;20222;-54
2023/06/18 01:54:10;;;;;;;9.27;8.47;;;16.10;99.90;;;;;;5091745;28;20227;-53
2023/06/18 01:56:39;;;;;;;10.40;9.40;;;16.10;99.90;;;;;;5093640;28;20211;-54
2023/06/18 01:59:07;;;;;;;10.80;9.80;;;16.10;99.90;;;;;;5073241;28;20682;-54
2023/06/18 02:01:35;;;;;;;11.20;10.00;;;16.10;99.90;;;;;;5074889;28;20281;-54
2023/06/18 02:04:04;;;;;;;10.00;9.10;;;16.00;99.90;;;;;;5093887;28;20249;-53
2023/06/18 02:06:32;;;;;;;10.60;9.57;;;16.00;99.90;;;;;;5093695;28;20244;-55
2023/06/18 02:09:00;;;;;;;12.60;11.33;;;16.00;99.90;;;;;;5093704;28;20226;-55
2023/06/18 02:11:31;;;;;;;11.20;10.10;;;16.00;99.90;;;;;;5075313;28;20223;-55
2023/06/18 02:13:59;;;;;;;12.90;11.70;;;16.00;99.90;;;;;;5064191;28;20220;-55
2023/06/18 02:16:28;;;;;;;11.70;10.60;;;15.90;99.90;;;;;;5066556;28;20228;-55
2023/06/18 02:18:57;;;;;;;13.97;11.83;;;15.90;99.90;;;;;;5095905;28;20237;-55
2023/06/18 02:21:28;;;;;;;14.93;11.67;;;15.90;99.90;;;;;;5095480;28;20222;-55
2023/06/18 02:23:57;;;;;;;11.37;10.27;;;15.90;99.90;;;;;;5111107;28;20253;-55
2023/06/18 02:26:25;;;;;;;9.73;8.83;;;15.80;99.90;;;;;;5093213;28;20272;-54
2023/06/18 02:28:54;;;;;;;9.97;9.07;;;15.80;99.90;;;;;;5062773;28;20241;-55
2023/06/18 02:31:23;;;;;;;10.60;9.60;;;15.70;99.90;;;;;;5072762;28;20325;-54
2023/06/18 02:33:50;;;;;;;10.70;9.70;;;15.70;99.90;;;;;;5073202;28;20226;-53
2023/06/18 02:36:19;;;;;;;12.00;10.90;;;15.70;99.90;;;;;;5073041;28;20221;-53
2023/06/18 02:38:47;;;;;;;11.50;10.37;;;15.70;99.90;;;;;;5074132;28;20302;-55
2023/06/18 02:41:15;;;;;;;12.70;11.50;;;15.70;99.90;;;;;;5074802;28;20253;-53
2023/06/18 02:43:43;;;;;;;11.97;10.87;;;15.70;99.90;;;;;;5084002;28;20215;-53
2023/06/18 02:46:13;;;;;;;12.50;11.30;;;15.70;99.90;;;;;;5064797;28;20226;-54
2023/06/18 02:48:41;;;;;;;11.97;10.77;;;15.70;99.90;;;;;;5074996;28;20227;-54
2023/06/18 02:51:09;;;;;;;12.03;10.83;;;15.60;99.90;;;;;;5113396;28;20240;-54
2023/06/18 02:53:37;;;;;;;12.37;11.00;;;15.60;99.90;;;;;;5113251;28;20249;-54
2023/06/18 02:56:05;;;;;;;12.07;10.87;;;15.60;99.90;;;;;;5066801;28;20257;-54
2023/06/18 02:58:35;;;;;;;12.37;11.27;;;15.60;99.90;;;;;;5088230;28;20284;-54
2023/06/18 03:01:04;;;;;;;12.53;11.23;;;15.60;99.90;;;;;;5074381;28;20244;-55
2023/06/18 03:03:41;;;;;;;13.57;12.33;;;15.50;99.90;;;;;;5074614;28;20740;-53
2023/06/18 03:06:10;;;;;;;13.80;12.40;;;15.50;99.90;;;;;;5074691;28;20229;-54
2023/06/18 03:08:38;;;;;;;15.03;13.60;;;15.50;99.90;;;;;;5074462;28;20321;-54
2023/06/18 03:11:06;;;;;;;12.60;11.43;;;15.50;99.90;;;;;;5091525;28;20681;-55
2023/06/18 03:13:34;;;;;;;19.07;12.00;;;15.50;99.90;;;;;;5067148;28;20582;-53
2023/06/18 03:16:03;;;;;;;12.10;10.83;;;15.50;99.90;;;;;;5054549;28;20258;-55
2023/06/18 03:18:34;;;;;;;14.30;11.83;;;15.50;99.90;;;;;;5078527;28;20682;-55
2023/06/18 03:21:04;;;;;;;12.37;11.03;;;15.50;99.90;;;;;;5060744;28;20239;-55
2023/06/18 03:23:32;;;;;;;11.03;10.10;;;15.50;99.90;;;;;;5079278;28;20226;-53
2023/06/18 03:26:05;;;;;;;12.73;11.50;;;15.40;99.90;;;;;;5066744;28;20215;-53
2023/06/18 03:28:34;;;;;;;11.80;10.70;;;15.40;99.90;;;;;;5072282;28;20311;-54
2023/06/18 03:31:02;;;;;;;12.23;11.03;;;15.40;99.90;;;;;;5085693;28;20219;-53
2023/06/18 03:33:32;;;;;;;12.67;11.47;;;15.40;99.90;;;;;;5086809;28;20237;-54
2023/06/18 03:36:01;;;;;;;12.17;10.97;;;15.40;99.90;;;;;;5095442;28;20616;-55
2023/06/18 03:38:33;;;;;;;11.53;10.43;;;15.40;99.90;;;;;;5095257;28;20222;-54
2023/06/18 03:41:33;;;;;;;10.30;9.30;;;15.50;99.90;;;;;;5080350;28;20781;-54
2023/06/18 03:44:01;;;;;;;10.40;9.50;;;15.50;99.90;;;;;;5078334;28;20264;-55
2023/06/18 03:46:30;;;;;;;10.30;9.40;;;15.50;99.90;;;;;;5082649;28;20225;-55
2023/06/18 03:48:58;;;;;;;10.27;9.27;;;15.50;99.90;;;;;;5107560;28;20229;-54
2023/06/18 03:51:26;;;;;;;10.30;9.40;;;15.60;99.90;;;;;;5098418;28;20225;-53
2023/06/18 03:53:55;;;;;;;10.60;9.60;;;15.60;99.90;;;;;;5094594;28;20217;-55
2023/06/18 03:56:24;;;;;;;11.77;10.67;;;15.70;99.90;;;;;;5096184;28;20210;-54
2023/06/18 03:58:52;;;;;;;12.00;10.90;;;15.80;99.90;;;;;;5074519;28;20730;-55
2023/06/18 04:01:21;;;;;;;13.17;11.80;;;15.90;99.90;;;;;;5057542;28;20234;-54
2023/06/18 04:03:49;;;;;;;12.80;11.50;;;16.00;99.90;;;;;;5085554;28;20236;-55
2023/06/18 04:06:17;;;;;;;14.70;13.27;;;16.10;99.90;;;;;;5086087;28;21017;-55
2023/06/18 04:08:46;;;;;;;14.03;12.67;;;16.10;99.90;;;;;;5092189;28;20257;-55
2023/06/18 04:11:16;;;;;;;13.37;12.07;;;16.20;99.90;;;;;;5094815;28;20218;-55
2023/06/18 04:13:44;;;;;;;11.57;10.57;;;16.10;99.90;;;;;;5073963;28;20223;-53
2023/06/18 04:16:15;;;;;;;11.87;10.67;;;16.10;99.90;;;;;;5057780;28;20231;-55
2023/06/18 04:18:43;;;;;;;13.67;12.37;;;16.30;99.90;;;;;;5101838;28;20707;-55
2023/06/18 04:21:11;;;;;;;14.30;12.90;;;16.20;99.90;;;;;;5082679;28;20690;-55
2023/06/18 04:23:41;;;;;;;13.60;12.40;;;16.30;99.90;;;;;;5099632;28;20249;-54
2023/06/18 04:26:10;;;;;;;13.67;12.37;;;16.30;99.90;;;;;;5077435;28;20750;-56
2023/06/18 04:28:40;;;;;;;12.87;11.67;;;16.40;99.90;;;;;;5069099;28;20231;-55
2023/06/18 04:31:08;;;;;;;12.30;11.10;;;16.50;99.90;;;;;;5067044;28;20233;-55
2023/06/18 04:33:36;;;;;;;12.37;11.27;;;16.50;99.90;;;;;;5095453;28;20298;-55
2023/06/18 04:36:04;;;;;;;13.37;12.07;;;16.70;99.90;;;;;;5095585;28;20219;-55
2023/06/18 04:38:33;;;;;;;14.77;13.23;;;16.80;99.90;;;;;;5093352;28;20269;-55
2023/06/18 04:41:01;;;;;;;14.60;13.23;;;17.00;99.90;;;;;;5095050;28;20316;-55
2023/06/18 04:43:30;;;;;;;14.47;13.00;;;17.10;99.90;;;;;;5083148;28;20230;-55
2023/06/18 04:46:01;;;;;;;13.90;12.60;;;17.20;99.90;;;;;;5058380;28;20231;-55
2023/06/18 04:48:31;;;;;;;13.87;12.60;;;17.30;99.90;;;;;;5074091;28;20710;-55
2023/06/18 04:50:59;;;;;;;14.90;13.50;;;17.40;99.90;;;;;;5089837;28;20630;-56
2023/06/18 04:53:29;;;;;;;15.60;14.00;;;17.50;99.90;;;;;;5077183;28;20231;-55
2023/06/18 04:55:58;;;;;;;17.00;14.43;;;17.60;99.90;;;;;;5076641;28;20326;-55
2023/06/18 04:58:28;;;;;;;13.57;12.37;;;17.70;99.90;;;;;;5057902;28;20626;-55
2023/06/18 05:00:57;;;;;;;14.63;13.33;;;17.90;99.90;;;;;;5059044;28;20251;-55
2023/06/18 05:03:26;;;;;;;14.07;12.83;;;18.00;99.90;;;;;;5085268;28;20224;-55
2023/06/18 05:05:54;;;;;;;14.97;13.47;;;18.20;99.90;;;;;;5094130;28;20271;-56
2023/06/18 05:08:22;;;;;;;14.70;13.23;;;18.30;99.90;;;;;;5093765;28;20658;-56
2023/06/18 05:10:50;;;;;;;16.23;14.73;;;18.40;99.90;;;;;;5090242;28;20242;-56
2023/06/18 05:13:20;;;;;;;16.03;14.53;;;18.60;99.90;;;;;;5080148;28;20282;-53
2023/06/18 05:15:48;;;;;;;14.87;13.40;;;18.60;99.90;;;;;;5077938;28;20241;-55
2023/06/18 05:18:16;;;;;;;14.30;13.00;;;18.70;99.90;;;;;;5093990;28;20225;-55
2023/06/18 05:20:46;;;;;;;14.23;12.93;;;18.80;99.90;;;;;;5077890;28;20221;-55
2023/06/18 05:23:14;;;;;;;14.17;12.87;;;19.00;99.90;;;;;;5077416;28;20322;-55
2023/06/18 05:25:42;;;;;;;14.97;13.50;;;19.30;99.90;;;;;;5092179;28;20300;-55
2023/06/18 05:28:10;;;;;;;13.63;12.33;;;19.60;99.90;;;;;;5094011;28;20220;-56
2023/06/18 05:30:42;;;;;;;15.30;13.73;;;19.80;99.90;;;;;;5060658;28;20614;-55
2023/06/18 05:33:10;;;;;;;16.77;15.17;;;20.00;99.90;;;;;;5094497;28;20685;-55
2023/06/18 05:35:40;;;;;;;13.73;12.33;;;20.40;99.90;;;;;;5077894;28;20218;-55
2023/06/18 05:38:10;;;;;;;13.47;12.27;;;20.60;99.90;;;;;;5080227;28;20263;-55
2023/06/18 05:40:38;;;;;;;13.07;11.87;;;21.00;99.90;;;;;;5093732;28;20241;-55
2023/06/18 05:43:07;;;;;;;13.87;12.50;;;21.30;99.90;;;;;;5074201;28;20225;-55
2023/06/18 05:45:44;;;;;;;11.30;10.23;;;21.40;99.90;;;;;;5074233;28;20229;-55
2023/06/18 05:48:14;;;;;;;12.00;10.90;;;21.60;99.90;;;;;;5078084;28;20221;-55
2023/06/18 05:51:02;;;;;;;12.10;10.90;;;22.00;99.90;;;;;;5074720;28;20226;-56
2023/06/18 05:53:32;;;;;;;12.80;10.20;;;22.50;99.90;;;;;;5094142;28;20685;-55
2023/06/18 05:56:00;;;;;;;14.87;13.17;;;22.50;99.90;;;;;;5075151;28;20241;-56
2023/06/18 05:58:28;;;;;;;12.93;11.63;;;22.40;99.90;;;;;;5074586;28;20828;-56
2023/06/18 06:00:56;;;;;;;12.67;11.37;;;22.60;99.90;;;;;;5092464;28;21303;-56
2023/06/18 06:03:25;;;;;;;13.00;11.70;;;23.00;99.90;;;;;;5086340;28;20297;-55
2023/06/18 06:05:53;;;;;;;10.27;9.30;;;23.20;99.90;;;;;;5089601;28;20234;-56
2023/06/18 06:08:21;;;;;;;11.17;10.17;;;23.30;99.90;;;;;;5074117;28;20646;-56
2023/06/18 06:10:55;;;;;;;9.33;8.53;;;23.40;99.90;;;;;;5075105;28;20249;-56
2023/06/18 06:13:23;;;;;;;10.60;9.50;;;23.70;99.90;;;;;;5073414;28;20589;-56
2023/06/18 06:15:56;;;;;;;10.20;9.20;;;23.90;99.90;;;;;;5069487;28;20634;-56
2023/06/18 06:18:25;;;;;;;9.37;8.50;;;24.00;99.90;;;;;;5074944;28;20223;-54
2023/06/18 06:20:54;;;;;;;10.30;9.30;;;24.00;99.90;;;;;;5102512;28;20321;-56
2023/06/18 06:23:22;;;;;;;11.03;9.97;;;24.30;99.90;;;;;;5073510;28;20270;-56
2023/06/18 06:25:50;;;;;;;9.77;8.87;;;24.50;99.90;;;;;;5076690;28;20250;-56
2023/06/18 06:28:19;;;;;;;9.23;8.20;;;24.60;99.90;;;;;;5069585;28;20291;-55
2023/06/18 06:30:48;;;;;;;10.27;9.27;;;24.60;99.90;;;;;;5063766;28;20706;-56
2023/06/18 06:33:16;;;;;;;9.53;8.73;;;24.80;99.90;;;;;;5087787;28;20213;-56
2023/06/18 06:35:44;;;;;;;8.43;7.73;;;24.90;99.90;;;;;;5090331;28;20250;-56
2023/06/18 06:38:14;;;;;;;8.27;7.47;;;25.10;99.90;;;;;;5092179;28;20223;-56
2023/06/18 06:40:43;;;;;;;8.87;8.07;;;25.20;99.90;;;;;;5081864;28;20217;-56
2023/06/18 06:43:11;;;;;;;7.97;7.13;;;25.60;99.90;;;;;;5073879;28;20224;-54
2023/06/18 06:45:56;;;;;;;8.30;7.60;;;25.60;99.90;;;;;;5074740;28;20681;-56
2023/06/18 06:48:57;;;;;;;8.00;6.30;;;25.90;99.90;;;;;;5072824;28;20583;-56
2023/06/18 06:51:43;;;;;;;7.03;6.43;;;26.10;99.90;;;;;;5092566;28;20228;-56
2023/06/18 06:54:13;;;;;;;6.50;5.90;;;26.10;99.90;;;;;;5078066;28;20596;-56
2023/06/18 06:56:41;;;;;;;6.87;6.20;;;26.50;99.90;;;;;;5072608;28;20224;-56
2023/06/18 06:59:10;;;;;;;6.43;5.83;;;26.50;99.90;;;;;;5071354;28;20270;-56
2023/06/18 07:01:40;;;;;;;7.23;6.53;;;26.70;99.90;;;;;;5085709;28;20240;-56
2023/06/18 07:04:08;;;;;;;7.33;6.63;;;26.60;99.90;;;;;;5074508;28;20639;-56
2023/06/18 07:06:38;;;;;;;6.97;6.37;;;26.90;99.90;;;;;;5092520;28;20716;-56
2023/06/18 07:09:06;;;;;;;6.43;5.93;;;27.10;99.90;;;;;;5101105;28;20652;-57
2023/06/18 07:11:36;;;;;;;7.13;6.47;;;27.40;99.90;;;;;;5108882;28;20286;-55
2023/06/18 07:14:04;;;;;;;6.17;5.67;;;27.40;99.90;;;;;;5088504;28;20686;-56
2023/06/18 07:16:33;;;;;;;6.00;5.50;;;27.30;99.90;;;;;;5085869;28;20233;-56
2023/06/18 07:19:03;;;;;;;6.10;5.50;;;27.40;99.90;;;;;;5085362;28;20569;-56
2023/06/18 07:21:31;;;;;;;7.17;6.40;;;27.50;99.90;;;;;;5088789;28;20620;-57
2023/06/18 07:23:59;;;;;;;6.70;6.07;;;27.60;99.90;;;;;;5089155;28;20253;-56
2023/06/18 07:26:27;;;;;;;6.03;5.60;;;27.90;99.90;;;;;;5081300;28;20222;-56
2023/06/18 07:28:55;;;;;;;6.17;5.67;;;28.00;99.90;;;;;;5079871;28;20253;-54
2023/06/18 07:31:24;;;;;;;7.23;5.20;;;28.30;99.90;;;;;;5079655;28;20274;-53
2023/06/18 07:33:53;;;;;;;6.40;5.80;;;28.50;99.90;;;;;;5079926;28;20710;-54
2023/06/18 07:36:22;;;;;;;5.50;4.77;;;28.70;99.90;;;;;;5082558;28;20277;-55
2023/06/18 07:38:50;;;;;;;5.53;5.03;;;28.90;99.90;;;;;;5080780;28;20226;-56
2023/06/18 07:41:19;;;;;;;5.73;5.10;;;29.10;99.90;;;;;;5080118;28;20217;-55
2023/06/18 07:43:47;;;;;;;5.97;5.47;;;29.20;99.90;;;;;;5079003;28;20227;-54
2023/06/18 07:46:15;;;;;;;5.63;5.13;;;29.30;99.90;;;;;;5078300;28;20724;-54
2023/06/18 07:48:43;;;;;;;6.77;6.07;;;29.30;99.90;;;;;;5081059;28;20301;-55
2023/06/18 07:51:11;;;;;;;6.20;5.50;;;29.20;99.90;;;;;;5079696;28;20577;-56
2023/06/18 07:53:40;;;;;;;6.20;5.60;;;29.30;99.90;;;;;;5079509;28;20223;-56
2023/06/18 07:56:08;;;;;;;6.67;6.07;;;29.70;99.90;;;;;;5078008;28;20214;-55
2023/06/18 07:58:36;;;;;;;6.03;5.50;;;29.50;99.90;;;;;;5079122;28;20777;-54
2023/06/18 08:01:05;;;;;;;5.73;5.30;;;29.50;99.90;;;;;;5077985;28;20227;-55
2023/06/18 08:03:33;;;;;;;5.10;4.70;;;29.40;99.90;;;;;;5078720;28;20301;-54
2023/06/18 08:06:01;;;;;;;4.70;4.30;;;29.40;99.90;;;;;;5076686;28;20237;-54
2023/06/18 08:08:29;;;;;;;4.87;4.47;;;29.60;99.90;;;;;;5079194;28;20304;-55
2023/06/18 08:10:58;;;;;;;4.57;4.17;;;29.80;99.90;;;;;;5078444;28;20237;-56
2023/06/18 08:13:26;;;;;;;4.77;4.30;;;29.90;99.90;;;;;;5081330;28;20230;-53
2023/06/18 08:15:55;;;;;;;4.57;4.17;;;30.30;99.90;;;;;;5089602;28;20719;-55
2023/06/18 08:18:23;;;;;;;5.23;4.03;;;30.60;99.90;;;;;;5091311;28;20718;-55
2023/06/18 08:20:51;;;;;;;4.63;4.23;;;31.20;99.90;;;;;;5088674;28;20311;-54
2023/06/18 08:23:19;;;;;;;4.57;4.20;;;31.10;99.90;;;;;;5090890;28;20716;-55
2023/06/18 08:25:47;;;;;;;5.33;4.30;;;31.50;99.90;;;;;;5088160;28;20234;-55
2023/06/18 08:28:16;;;;;;;4.37;4.07;;;31.40;99.90;;;;;;5094723;28;20232;-56
2023/06/18 08:30:44;;;;;;;4.47;4.10;;;31.40;99.90;;;;;;5088558;28;20790;-55
2023/06/18 08:33:12;;;;;;;4.47;4.07;;;31.90;99.90;;;;;;5084199;28;20241;-55
2023/06/18 08:35:40;;;;;;;4.63;4.23;;;31.90;99.90;;;;;;5083139;28;20259;-55
2023/06/18 08:38:08;;;;;;;4.73;4.27;;;31.90;99.90;;;;;;5082904;28;20735;-53
2023/06/18 08:40:43;;;;;;;4.67;4.03;;;32.10;99.90;;;;;;5081374;28;20258;-56
2023/06/18 08:43:14;;;;;;;4.17;3.77;;;32.30;99.90;;;;;;5089012;28;20229;-54
2023/06/18 08:45:45;;;;;;;4.37;3.97;;;32.30;99.80;;;;;;5071440;28;20226;-55
2023/06/18 08:48:14;;;;;;;5.00;4.50;;;32.10;99.90;;;;;;5088927;28;20248;-55
2023/06/18 08:51:00;;;;;;;5.30;4.80;;;32.50;98.50;;;;;;5088308;28;20933;-53
2023/06/18 08:53:37;;;;;;;4.40;4.07;;;32.40;96.20;;;;;;5089114;28;20253;-55
2023/06/18 08:56:07;;;;;;;4.27;3.87;;;31.80;97.30;;;;;;5089911;28;20213;-56
2023/06/18 08:58:41;;;;;;;5.40;4.70;;;31.90;98.20;;;;;;5073802;28;20765;-55
2023/06/18 09:01:10;;;;;;;5.57;4.10;;;32.10;97.10;;;;;;5060062;28;20233;-55
2023/06/18 09:03:41;;;;;;;4.80;4.40;;;32.10;97.90;;;;;;5081565;28;20781;-54
2023/06/18 09:06:10;;;;;;;4.43;4.03;;;32.30;97.20;;;;;;5081553;28;20231;-52
2023/06/18 09:08:39;;;;;;;4.10;3.80;;;32.30;96.40;;;;;;5081293;28;20266;-54
2023/06/18 09:11:07;;;;;;;4.63;4.23;;;32.50;96.30;;;;;;5059560;28;20237;-55
2023/06/18 09:13:41;;;;;;;4.50;3.77;;;32.60;95.40;;;;;;5087454;28;20904;-53
2023/06/18 09:16:12;;;;;;;4.33;4.00;;;32.60;96.80;;;;;;5088316;28;20225;-54
2023/06/18 09:18:40;;;;;;;4.00;3.70;;;32.60;96.40;;;;;;5086907;28;20587;-55
2023/06/18 09:21:08;;;;;;;4.43;4.03;;;33.00;96.50;;;;;;5071897;28;20771;-55
2023/06/18 09:23:37;;;;;;;4.33;3.90;;;33.70;93.30;;;;;;5088050;28;20739;-57
2023/06/18 09:26:05;;;;;;;4.77;3.90;;;33.60;94.20;;;;;;5086862;28;20226;-55
2023/06/18 09:28:33;;;;;;;4.53;3.63;;;33.40;94.30;;;;;;5081881;28;20223;-54
2023/06/18 09:31:03;;;;;;;3.90;3.60;;;33.30;94.30;;;;;;5079998;28;20236;-54
2023/06/18 09:33:33;;;;;;;4.27;3.90;;;33.80;94.40;;;;;;5081221;28;20231;-54
2023/06/18 09:36:03;;;;;;;4.17;3.77;;;33.50;92.80;;;;;;5081743;28;20303;-55
2023/06/18 09:38:36;;;;;;;4.10;3.80;;;33.50;92.40;;;;;;5081321;28;20272;-55
2023/06/18 09:41:11;;;;;;;4.47;3.93;;;33.40;93.00;;;;;;5079425;28;20224;-54
2023/06/18 09:43:41;;;;;;;6.33;4.00;;;34.00;93.10;;;;;;5081199;28;20566;-53
2023/06/18 09:46:10;;;;;;;5.07;4.20;;;34.60;93.00;;;;;;5080758;28;20698;-54
2023/06/18 09:48:43;;;;;;;4.20;3.80;;;34.50;91.10;;;;;;5062525;28;20263;-54
2023/06/18 09:51:11;;;;;;;4.40;3.93;;;34.30;90.60;;;;;;5079291;28;20235;-54
2023/06/18 09:53:39;;;;;;;3.93;3.63;;;34.80;90.70;;;;;;5060324;28;20238;-53
2023/06/18 09:56:15;;;;;;;3.83;3.53;;;34.80;90.30;;;;;;5081532;28;20597;-55
2023/06/18 09:58:47;;;;;;;4.20;3.80;;;34.80;90.90;;;;;;5085715;28;20254;-54
2023/06/18 10:01:17;;;;;;;4.37;3.97;;;34.80;89.80;;;;;;5070533;28;20230;-52
2023/06/18 10:03:47;;;;;;;3.90;3.50;;;34.80;90.10;;;;;;5087655;28;20221;-54
2023/06/18 10:06:18;;;;;;;4.07;3.67;;;34.60;88.20;;;;;;5086642;28;20703;-54
2023/06/18 10:08:48;;;;;;;4.23;3.83;;;34.50;89.40;;;;;;5080279;28;20218;-54
2023/06/18 10:11:17;;;;;;;4.27;3.90;;;34.20;87.30;;;;;;5078263;28;20301;-52
2023/06/18 10:13:47;;;;;;;4.17;3.73;;;34.40;85.60;;;;;;5080245;28;20585;-53
2023/06/18 10:16:16;;;;;;;3.80;3.50;;;34.80;86.70;;;;;;5080264;28;20218;-55
2023/06/18 10:18:55;;;;;;;4.17;3.80;;;34.80;88.30;;;;;;5080240;28;20253;-55
2023/06/18 10:21:25;;;;;;;4.10;3.70;;;35.00;88.10;;;;;;5078730;28;20230;-53
2023/06/18 10:23:56;;;;;;;3.80;3.50;;;35.20;87.40;;;;;;5080154;28;20228;-52
2023/06/18 10:26:25;;;;;;;4.10;3.80;;;35.40;87.60;;;;;;5080226;28;20694;-53
2023/06/18 10:28:53;;;;;;;4.20;3.70;;;35.20;83.00;;;;;;5080371;28;20250;-51
2023/06/18 10:31:21;;;;;;;4.50;3.60;;;35.20;81.10;;;;;;5078692;28;20236;-52
2023/06/18 10:33:52;;;;;;;5.63;3.80;;;34.50;82.80;;;;;;5080753;28;20807;-54
2023/06/18 10:36:20;;;;;;;4.07;3.67;;;34.70;83.70;;;;;;5079781;28;20227;-53
2023/06/18 10:38:49;;;;;;;4.10;3.80;;;35.00;82.50;;;;;;5079886;28;20716;-53
2023/06/18 10:41:19;;;;;;;3.90;3.60;;;35.40;81.90;;;;;;5077867;28;20734;-53
2023/06/18 10:43:51;;;;;;;3.43;3.23;;;35.60;78.70;;;;;;5080216;28;20718;-54
2023/06/18 10:46:20;;;;;;;3.70;3.40;;;35.20;79.80;;;;;;5079669;28;20227;-55
2023/06/18 10:49:17;;;;;;;3.80;3.50;;;35.20;82.00;;;;;;5080001;28;20811;-55
2023/06/18 10:52:06;;;;;;;3.90;3.60;;;35.20;79.20;;;;;;5068534;28;20238;-54
2023/06/18 10:54:37;;;;;;;3.67;3.40;;;35.00;79.30;;;;;;5079952;28;20248;-53
2023/06/18 10:57:05;;;;;;;3.70;3.40;;;35.20;80.90;;;;;;5080999;28;20233;-54
2023/06/18 10:59:35;;;;;;;6.10;3.27;;;35.80;80.20;;;;;;5080387;28;20555;-53
2023/06/18 11:02:04;;;;;;;3.93;3.63;;;35.60;76.40;;;;;;5077975;28;20230;-55
2023/06/18 11:04:34;;;;;;;3.87;3.57;;;35.20;78.50;;;;;;5080594;28;20298;-53
2023/06/18 11:07:13;;;;;;;4.37;3.97;;;35.30;79.90;;;;;;5080342;28;20234;-54
2023/06/18 11:09:50;;;;;;;3.77;3.43;;;35.30;77.90;;;;;;5080443;28;20218;-52
2023/06/18 11:12:19;;;;;;;4.00;3.63;;;35.50;79.20;;;;;;5077500;28;20376;-52
2023/06/18 11:15:14;;;;;;;3.70;3.40;;;35.90;76.30;;;;;;5079093;28;20225;-54
2023/06/18 11:17:44;;;;;;;4.20;3.80;;;36.10;78.70;;;;;;5079452;28;20229;-51
2023/06/18 11:20:14;;;;;;;3.87;3.50;;;36.30;78.70;;;;;;5077789;28;20262;-55
2023/06/18 11:22:43;;;;;;;3.80;3.50;;;36.90;74.30;;;;;;5079082;28;20224;-54
2023/06/18 11:25:13;;;;;;;3.83;3.53;;;36.90;75.10;;;;;;5079077;28;20586;-53
2023/06/18 11:27:43;;;;;;;3.50;3.20;;;36.50;73.10;;;;;;5079180;28;20674;-53
2023/06/18 11:30:13;;;;;;;4.27;3.37;;;36.90;74.50;;;;;;5077277;28;20225;-50
2023/06/18 11:32:41;;;;;;;3.70;3.40;;;36.80;73.30;;;;;;5078835;28;20400;-51
2023/06/18 11:35:11;;;;;;;3.60;3.37;;;36.80;73.70;;;;;;5079241;28;20231;-51
2023/06/18 11:37:41;;;;;;;4.43;3.53;;;36.90;73.00;;;;;;5078890;28;20802;-53
2023/06/18 11:40:10;;;;;;;3.47;3.27;;;37.20;71.50;;;;;;5082964;28;20313;-55
2023/06/18 11:42:40;;;;;;;3.63;3.33;;;37.30;69.30;;;;;;5087052;28;20788;-53
2023/06/18 11:45:09;;;;;;;3.57;3.27;;;36.80;68.30;;;;;;5081441;28;20263;-54
2023/06/18 11:47:37;;;;;;;4.27;3.60;;;37.10;68.90;;;;;;5079784;28;20305;-54
2023/06/18 11:50:06;;;;;;;3.63;3.30;;;36.90;70.00;;;;;;5079903;28;20308;-52
2023/06/18 11:52:36;;;;;;;3.53;3.23;;;36.30;66.00;;;;;;5082332;28;20234;-53
2023/06/18 11:55:06;;;;;;;4.37;3.33;;;35.30;67.60;;;;;;5083963;28;20720;-55
2023/06/18 11:57:35;;;;;;;3.57;3.27;;;35.10;69.40;;;;;;5062744;28;20309;-51
2023/06/18 12:00:08;;;;;;;3.67;3.30;;;35.30;71.60;;;;;;5082505;28;20234;-52
2023/06/18 12:02:40;;;;;;;4.80;3.70;;;35.00;73.10;;;;;;5082893;28;20835;-54
2023/06/18 12:05:10;;;;;;;3.50;3.30;;;34.90;70.40;;;;;;5082009;28;20631;-52
2023/06/18 12:07:41;;;;;;;4.00;3.60;;;34.60;69.50;;;;;;5082357;28;20225;-51
2023/06/18 12:10:13;;;;;;;3.60;3.30;;;34.10;70.90;;;;;;5082035;28;20633;-51
2023/06/18 12:12:52;;;;;;;3.90;3.60;;;34.00;71.90;;;;;;5083293;28;20242;-54
2023/06/18 12:15:26;;;;;;;3.80;3.47;;;33.60;72.80;;;;;;5082658;28;20799;-52
2023/06/18 12:17:57;;;;;;;4.20;3.90;;;33.40;73.20;;;;;;5082551;28;20238;-54
2023/06/18 12:20:28;;;;;;;3.90;3.60;;;32.80;74.20;;;;;;5080358;28;20716;-52
2023/06/18 12:22:57;;;;;;;5.03;3.60;;;32.60;76.60;;;;;;5083236;28;20614;-53
2023/06/18 12:25:29;;;;;;;3.90;3.60;;;32.40;74.50;;;;;;5083267;28;21049;-54
2023/06/18 12:27:59;;;;;;;4.37;3.43;;;32.30;73.90;;;;;;5082526;28;20723;-53
2023/06/18 12:30:32;;;;;;;3.70;3.40;;;32.20;75.40;;;;;;5079587;28;20333;-54
2023/06/18 12:33:02;;;;;;;3.80;3.50;;;31.80;74.90;;;;;;5081923;28;20686;-54
2023/06/18 12:35:31;;;;;;;4.20;3.80;;;31.50;76.40;;;;;;5081971;28;20210;-55
2023/06/18 12:38:04;;;;;;;4.30;3.80;;;31.20;76.10;;;;;;5082242;28;20219;-52
2023/06/18 12:40:35;;;;;;;4.83;3.80;;;30.90;78.80;;;;;;5080295;28;20604;-55
2023/06/18 12:43:09;;;;;;;4.40;3.67;;;30.70;77.00;;;;;;5082298;28;20554;-55
2023/06/18 12:45:38;;;;;;;5.43;3.90;;;30.60;78.90;;;;;;5082390;28;20729;-55
2023/06/18 12:48:11;;;;;;;3.77;3.47;;;31.00;80.10;;;;;;5083269;28;20253;-54
2023/06/18 12:50:44;;;;;;;3.77;3.47;;;31.40;80.80;;;;;;5078622;28;20312;-53
2023/06/18 12:53:14;;;;;;;3.73;3.43;;;31.70;79.90;;;;;;5082002;28;20224;-53